Terminal Aerodrome Forecast
Issued by NWS Buffalo, NY

Home | Current Version | Previous Version | Text Only | Print | Product List | Glossary On
Versions: 1 2 3 4 5 6 7 8 9 10 11 12 13 14 15 16 17 18 19 20 21 22 23 24 25 26 27 28
877
FTUS41 KBUF 180251 AAB
TAFBUF
TAF AMD
KBUF 180251Z 1803/1824 18009KT 3SM -RA BR FEW016 OVC045
     FM180400 20010G16KT 6SM -RA BR SCT015 BKN035
     FM180600 21011KT 6SM BR VCSH BKN040
     FM181100 23010G16KT P6SM BKN060
     FM181400 23012G19KT P6SM SCT060
     FM181800 24017G27KT P6SM SCT050=

USA.gov is the U.S. government's official web portal to all federal, state and local government web resources and services.